Alpine, Alabama
Current Conditions -  °F | °C
As of 1:35 PM on Friday 31 Oct 2014 (Local Time) from KSCD Reporting Station
Scattered Clouds Scattered Clouds  
Wind Chill: 62°   Ceiling: Unl
Heat Index: 62°   Visibility: 10mi
Dew Point: 43°   Wind: 0mph
Humidity: 50%   Direction: NA
Pressure: 29.95"   Gusts: NA
Location:  33.34°N, 86.23°W
Report Text: KSCD 311835Z AUTO 00000KT 10SM SCT050 SCT075 17/06 A2995 RMK AO2 T01670063
Loading
Personal Weather Stations






























Interactive Weather Map
Tropical Storm Tracking
New forecast layout! Learn more

10-Day Weather Forecast

Advertisements
Track Severe Weather on mobile